Time;durP1;ratioP1;P1;durP2;ratioP2;P2;SDS_P1;SDS_P2;PMS_P1;PMS_P2;Temp;Humidity;BMP_temperature;BMP_pressure;BME280_temperature;BME280_humidity;BME280_pressure;Samples;Min_cycle;Max_cycle;Signal;HPM_P1;HPM_P2
2022/09/21 00:01:53;;;;;;;1.80;1.70;;;;;;;13.43;59.83;94761.03;5110213;28;20181;-79
2022/09/21 00:04:20;;;;;;;1.83;1.73;;;;;;;13.59;59.62;94785.16;5109987;28;20385;-80
2022/09/21 00:06:48;;;;;;;1.50;1.40;;;;;;;13.53;59.73;94768.59;5109697;28;20221;-77
2022/09/21 00:09:15;;;;;;;1.80;1.70;;;;;;;13.59;59.83;94783.41;5110000;28;20189;-78
2022/09/21 00:11:42;;;;;;;1.73;1.60;;;;;;;13.34;59.94;94738.00;5109583;28;20185;-78
2022/09/21 00:14:11;;;;;;;1.80;1.70;;;;;;;13.57;60.11;94777.63;5109823;28;20542;-80
2022/09/21 00:16:39;;;;;;;1.80;1.70;;;;;;;13.57;60.16;94782.75;5109629;28;20316;-79
2022/09/21 00:19:06;;;;;;;2.20;2.00;;;;;;;13.50;60.01;94781.75;5109720;28;20342;-79
2022/09/21 00:21:34;;;;;;;1.60;1.50;;;;;;;13.57;60.18;94782.75;5109501;28;20224;-79
2022/09/21 00:24:02;;;;;;;1.80;1.70;;;;;;;13.55;60.50;94782.91;5110078;28;20248;-78
2022/09/21 00:26:30;;;;;;;2.00;1.70;;;;;;;13.22;60.44;94730.56;5109854;28;20197;-78
2022/09/21 00:28:58;;;;;;;3.80;1.80;;;;;;;13.55;60.22;94782.91;5109950;28;20185;-77
2022/09/21 00:31:26;;;;;;;1.80;1.70;;;;;;;13.37;60.35;94748.78;5112915;28;20193;-78
2022/09/21 00:33:54;;;;;;;1.90;1.80;;;;;;;13.36;60.43;94748.94;5114841;28;20200;-79
2022/09/21 00:36:24;;;;;;;2.70;1.60;;;;;;;13.46;60.43;94765.84;5126237;28;20197;-79
2022/09/21 00:38:53;;;;;;;4.40;1.77;;;;;;;13.53;60.45;94776.31;5123980;28;20484;-78
2022/09/21 00:41:21;;;;;;;1.63;1.53;;;;;;;13.34;60.55;94754.22;5121741;28;20192;-78
2022/09/21 00:44:09;;;;;;;1.60;1.50;;;;;;;13.51;60.86;94778.22;5114886;28;20632;-78
2022/09/21 00:46:38;;;;;;;1.70;1.60;;;;;;;12.97;60.75;94698.00;5117976;28;20196;-79
2022/09/21 00:49:05;;;;;;;1.60;1.50;;;;;;;13.47;60.76;94774.34;5117665;28;20181;-80
2022/09/21 00:51:32;;;;;;;1.80;1.70;;;;;;;13.47;61.13;94776.91;5114949;28;20268;-82
2022/09/21 00:54:04;;;;;;;2.17;1.77;;;;;;;13.35;60.88;94757.63;5114119;28;20683;-78
2022/09/21 00:56:32;;;;;;;2.10;1.90;;;;;;;13.45;61.16;94779.66;5116738;28;20196;-80
2022/09/21 00:58:59;;;;;;;1.87;1.77;;;;;;;13.44;61.09;94769.53;5115333;28;20282;-79
2022/09/21 01:01:26;;;;;;;1.97;1.83;;;;;;;13.35;61.28;94755.84;5114293;28;20181;-80
2022/09/21 01:03:56;;;;;;;6.47;1.97;;;;;;;13.43;61.27;94773.88;5114003;28;20181;-79
2022/09/21 01:06:23;;;;;;;1.90;1.70;;;;;;;13.43;61.26;94778.22;5113823;28;20790;-80
2022/09/21 01:08:54;;;;;;;2.07;1.83;;;;;;;13.40;61.34;94776.72;5113562;28;20257;-80
2022/09/21 01:11:33;;;;;;;1.90;1.80;;;;;;;13.39;61.51;94780.28;5113785;28;20393;-79
2022/09/21 01:14:23;;;;;;;2.20;2.00;;;;;;;13.39;61.58;94779.47;5093103;28;20181;-79
2022/09/21 01:17:02;;;;;;;2.00;1.90;;;;;;;13.16;61.67;94750.88;5095334;28;20625;-78
2022/09/21 01:19:52;;;;;;;2.40;2.20;;;;;;;13.33;61.65;94780.88;5113095;28;20216;-77
2022/09/21 01:22:32;;;;;;;2.60;2.40;;;;;;;13.30;61.83;94776.84;5113145;28;20242;-77
2022/09/21 01:25:09;;;;;;;2.93;2.33;;;;;;;13.22;61.52;94768.25;5112858;28;20184;-78
2022/09/21 01:27:58;;;;;;;2.40;2.20;;;;;;;13.24;61.59;94772.31;5113408;28;20192;-78
2022/09/21 01:30:26;;;;;;;2.77;2.57;;;;;;;13.16;61.67;94748.31;5113294;28;20185;-78
2022/09/21 01:32:59;;;;;;;2.67;2.47;;;;;;;13.20;61.69;94763.25;5112817;28;20197;-78
2022/09/21 01:35:31;;;;;;;2.57;2.37;;;;;;;13.18;61.84;94759.25;5113005;28;20189;-78
2022/09/21 01:38:03;;;;;;;2.53;2.33;;;;;;;13.05;61.83;94741.69;5112745;28;20215;-77
2022/09/21 01:40:33;;;;;;;2.67;2.47;;;;;;;13.04;61.49;94740.88;5112513;28;20185;-78
2022/09/21 01:43:02;;;;;;;2.70;2.33;;;;;;;13.13;61.61;94751.22;5111406;28;20197;-78
2022/09/21 01:45:34;;;;;;;2.97;2.67;;;;;;;13.04;61.65;94746.00;5112514;28;20189;-79
2022/09/21 01:48:02;;;;;;;3.13;2.80;;;;;;;13.10;61.57;94751.50;5112225;28;20205;-77
2022/09/21 01:50:35;;;;;;;4.90;2.60;;;;;;;12.99;61.57;94744.84;5112244;28;20196;-78
2022/09/21 01:53:08;;;;;;;2.73;2.30;;;;;;;13.03;61.83;94752.09;5112651;28;20208;-78
2022/09/21 01:55:41;;;;;;;3.03;2.33;;;;;;;12.90;61.70;94735.47;5112464;28;20197;-77
2022/09/21 01:58:16;;;;;;;3.17;2.40;;;;;;;12.99;61.84;94755.91;5112409;28;20225;-77
2022/09/21 02:00:47;;;;;;;2.43;2.23;;;;;;;12.77;61.89;94720.47;5112054;28;20299;-79
2022/09/21 02:03:20;;;;;;;5.40;2.60;;;;;;;12.53;61.54;94685.22;5112047;28;20204;-77
2022/09/21 02:05:47;;;;;;;3.63;2.53;;;;;;;12.92;61.76;94749.78;5111495;28;20666;-77
2022/09/21 02:08:14;;;;;;;2.57;2.37;;;;;;;12.48;61.67;94688.22;5111548;28;20221;-77
2022/09/21 02:10:47;;;;;;;3.33;2.20;;;;;;;12.82;61.93;94738.78;5111730;28;20200;-78
2022/09/21 02:13:15;;;;;;;2.10;2.00;;;;;;;12.74;62.07;94738.75;5111494;28;20631;-77
2022/09/21 02:15:54;;;;;;;3.60;2.40;;;;;;;12.72;62.13;94741.47;5111595;28;20196;-79
2022/09/21 02:18:35;;;;;;;2.87;2.30;;;;;;;12.40;62.40;94693.28;5111878;28;20231;-77
2022/09/21 02:21:07;;;;;;;2.80;2.60;;;;;;;12.35;62.57;94689.53;5111809;28;20192;-77
2022/09/21 02:23:42;;;;;;;2.30;2.10;;;;;;;12.61;62.33;94739.16;5111536;28;20276;-79
2022/09/21 02:26:15;;;;;;;5.03;2.40;;;;;;;12.74;62.37;94766.97;5111818;28;20602;-79
2022/09/21 02:28:50;;;;;;;2.27;2.13;;;;;;;12.44;62.27;94715.13;5111112;28;20208;-78
2022/09/21 02:31:27;;;;;;;3.00;2.50;;;;;;;12.71;62.54;94773.22;5111660;28;20185;-78
2022/09/21 02:34:02;;;;;;;3.87;2.63;;;;;;;12.72;62.54;94766.31;5111354;28;20636;-79
2022/09/21 02:36:35;;;;;;;3.63;2.20;;;;;;;12.70;62.38;94770.81;5111525;28;20185;-80
2022/09/21 02:39:06;;;;;;;2.53;2.33;;;;;;;12.68;62.60;94763.22;5111612;28;20761;-80
2022/09/21 02:41:40;;;;;;;2.50;2.30;;;;;;;12.67;62.52;94774.47;5111383;28;20650;-80
2022/09/21 02:44:11;;;;;;;4.00;2.53;;;;;;;12.67;62.53;94768.53;5118788;28;20196;-78
2022/09/21 02:46:44;;;;;;;2.97;2.37;;;;;;;12.65;62.51;94770.41;5121657;28;20185;-78
2022/09/21 02:49:16;;;;;;;2.57;1.87;;;;;;;12.64;62.76;94766.25;5111103;28;20279;-79
2022/09/21 02:51:47;;;;;;;3.17;2.10;;;;;;;12.62;62.51;94768.97;5111331;28;20209;-78
2022/09/21 02:54:17;;;;;;;3.97;2.63;;;;;;;12.60;62.45;94763.16;5111616;28;20196;-79
2022/09/21 02:56:47;;;;;;;3.33;2.27;;;;;;;12.59;62.34;94766.69;5110756;28;20211;-80
2022/09/21 02:59:16;;;;;;;6.10;2.77;;;;;;;12.56;62.52;94766.97;5111310;28;20209;-81
2022/09/21 03:01:45;;;;;;;5.10;2.27;;;;;;;12.35;62.61;94733.97;5110641;28;20204;-80
2022/09/21 03:04:11;;;;;;;5.20;2.00;;;;;;;12.55;62.59;94768.75;5111199;28;20185;-78
2022/09/21 03:06:38;;;;;;;2.63;2.40;;;;;;;12.55;62.61;94765.38;5111264;28;20224;-77
2022/09/21 03:09:05;;;;;;;2.30;2.10;;;;;;;12.22;62.51;94723.28;5111500;28;20286;-80
2022/09/21 03:11:34;;;;;;;2.37;2.20;;;;;;;12.33;62.74;94747.88;5110491;28;20185;-77
2022/09/21 03:14:04;;;;;;;2.67;2.37;;;;;;;12.49;62.73;94771.09;5111584;28;20660;-77
2022/09/21 03:16:31;;;;;;;2.97;2.47;;;;;;;12.49;62.74;94771.91;5111684;28;20654;-78
2022/09/21 03:18:59;;;;;;;6.60;2.43;;;;;;;12.46;62.97;94768.81;5111545;28;20205;-79
2022/09/21 03:21:26;;;;;;;5.33;2.33;;;;;;;12.37;62.87;94757.69;5111501;28;20272;-78
2022/09/21 03:23:53;;;;;;;6.07;2.20;;;;;;;12.44;62.95;94766.41;5111114;28;20200;-78
2022/09/21 03:26:21;;;;;;;3.13;2.20;;;;;;;12.42;62.89;94772.63;5111028;28;20181;-79
2022/09/21 03:28:48;;;;;;;3.10;2.47;;;;;;;12.39;62.89;94771.19;5110609;28;20192;-79
2022/09/21 03:31:14;;;;;;;3.73;2.33;;;;;;;12.39;63.10;94775.50;5110556;28;20196;-79
2022/09/21 03:33:41;;;;;;;3.03;2.37;;;;;;;12.37;63.24;94774.84;5109992;28;20569;-78
2022/09/21 03:36:10;;;;;;;2.70;2.50;;;;;;;12.37;63.03;94779.97;5110700;28;20184;-78
2022/09/21 03:38:37;;;;;;;2.60;2.40;;;;;;;12.34;63.22;94777.69;5110059;28;20660;-78
2022/09/21 03:41:05;;;;;;;3.23;2.60;;;;;;;12.34;63.21;94777.69;5110591;28;20254;-78
2022/09/21 03:43:32;;;;;;;5.47;2.70;;;;;;;12.04;63.25;94733.50;5109584;28;20189;-80
2022/09/21 03:46:00;;;;;;;4.07;2.40;;;;;;;12.31;63.33;94776.25;5109946;28;20193;-78
2022/09/21 03:48:27;;;;;;;2.80;2.50;;;;;;;12.23;63.46;94769.28;5109924;28;20193;-77
2022/09/21 03:50:54;;;;;;;2.80;2.60;;;;;;;12.16;63.36;94759.75;5108957;28;20184;-78
2022/09/21 03:53:22;;;;;;;5.43;2.50;;;;;;;12.27;63.43;94780.84;5109730;28;20200;-79
2022/09/21 03:55:49;;;;;;;3.60;3.00;;;;;;;12.27;63.41;94785.97;5109226;28;20197;-79
2022/09/21 03:58:17;;;;;;;5.27;2.60;;;;;;;12.28;63.57;94786.78;5109815;28;20196;-78
2022/09/21 04:00:43;;;;;;;2.80;2.37;;;;;;;12.27;63.40;94780.84;5110167;28;20227;-79
2022/09/21 04:03:10;;;;;;;5.27;2.50;;;;;;;12.27;63.63;94780.84;5110077;28;20676;-78
2022/09/21 04:05:39;;;;;;;3.33;3.03;;;;;;;12.13;63.56;94760.03;5108432;27;20238;-78
2022/09/21 04:08:06;;;;;;;3.83;2.70;;;;;;;12.26;63.59;94786.09;5109939;28;20197;-78
2022/09/21 04:10:34;;;;;;;7.43;3.00;;;;;;;12.26;63.63;94776.69;5109840;28;20629;-77
2022/09/21 04:13:03;;;;;;;3.63;2.77;;;;;;;12.20;63.54;94774.69;5110872;28;20245;-80
2022/09/21 04:15:30;;;;;;;3.17;2.77;;;;;;;12.04;63.61;94744.56;5109725;28;20181;-79
2022/09/21 04:17:58;;;;;;;5.33;2.87;;;;;;;12.28;63.62;94795.28;5111043;28;20189;-79
2022/09/21 04:20:25;;;;;;;4.37;2.77;;;;;;;12.31;63.55;94791.63;5112424;28;20208;-80
2022/09/21 04:22:52;;;;;;;3.03;2.73;;;;;;;11.70;63.38;94687.16;5110286;28;20192;-79
2022/09/21 04:25:19;;;;;;;3.23;2.77;;;;;;;10.84;63.45;94562.09;5109998;28;20200;-80
2022/09/21 04:27:48;;;;;;;3.47;2.83;;;;;;;12.37;63.73;94785.91;5110112;28;20235;-81
2022/09/21 04:30:16;;;;;;;5.00;2.70;;;;;;;12.17;63.34;94749.31;5109695;28;20266;-79
2022/09/21 04:32:45;;;;;;;4.73;2.70;;;;;;;12.45;63.39;94791.09;5109818;28;20234;-81
2022/09/21 04:35:12;;;;;;;8.20;3.67;;;;;;;12.50;63.49;94788.09;5109954;28;20189;-80
2022/09/21 04:37:38;;;;;;;3.47;2.83;;;;;;;11.32;63.38;94606.28;5109995;28;20185;-81
2022/09/21 04:40:08;;;;;;;2.60;2.17;;;;;;;12.23;63.36;94727.44;5110076;28;20220;-80
2022/09/21 04:42:35;;;;;;;2.80;2.50;;;;;;;12.72;63.24;94781.72;5109390;28;20192;-79
2022/09/21 04:45:03;;;;;;;5.47;2.73;;;;;;;12.89;64.24;94786.00;5111562;28;20200;-78
2022/09/21 04:47:30;;;;;;;2.77;2.27;;;;;;;13.08;65.63;94790.13;5111019;28;20263;-76
2022/09/21 04:49:58;;;;;;;2.37;2.17;;;;;;;12.92;66.56;94738.72;5109816;28;20560;-81
2022/09/21 04:52:25;;;;;;;5.83;2.97;;;;;;;13.18;67.09;94762.63;5109983;28;20250;-80
2022/09/21 04:54:52;;;;;;;3.33;2.53;;;;;;;13.41;67.02;94780.91;5110087;28;20185;-80
2022/09/21 04:57:20;;;;;;;3.40;2.03;;;;;;;13.52;67.17;94790.13;5112398;28;20193;-77
2022/09/21 04:59:46;;;;;;;4.00;2.37;;;;;;;13.67;67.05;94783.44;5109379;28;20618;-78
2022/09/21 05:02:15;;;;;;;6.00;2.33;;;;;;;13.73;64.99;94789.72;5109438;28;20608;-77
2022/09/21 05:04:41;;;;;;;2.47;2.20;;;;;;;13.76;64.39;94792.78;5109601;28;20193;-79
2022/09/21 05:07:08;;;;;;;3.33;2.17;;;;;;;13.94;65.88;94792.69;5108963;28;20599;-78
2022/09/21 05:12:19;;;;;;;7.50;2.53;;;;;;;14.61;75.72;94800.44;5109700;28;20183;-78
2022/09/21 05:14:46;;;;;;;5.80;2.53;;;;;;;15.02;77.92;94790.94;5109782;28;20283;-78
2022/09/21 05:17:17;;;;;;;4.60;2.40;;;;;;;15.27;76.80;94768.53;5109581;28;20211;-79
2022/09/21 05:19:43;;;;;;;5.93;2.57;;;;;;;15.94;75.11;94796.53;5118666;28;20227;-78
2022/09/21 05:22:10;;;;;;;4.97;2.83;;;;;;;16.44;73.38;94792.72;5127539;28;20551;-80
2022/09/21 05:24:37;;;;;;;8.50;3.00;;;;;;;16.93;71.73;94786.44;5126781;28;20201;-78
2022/09/21 05:27:04;;;;;;;3.93;2.63;;;;;;;17.38;69.53;94797.66;5129418;28;20185;-79
2022/09/21 05:29:32;;;;;;;6.53;2.93;;;;;;;17.75;70.60;94784.69;5129497;28;20177;-77
2022/09/21 05:32:07;;;;;;;6.83;2.67;;;;;;;18.35;70.41;94795.75;5131087;28;20184;-78
2022/09/21 05:34:49;;;;;;;8.70;2.53;;;;;;;18.91;67.75;94795.09;5126521;28;20273;-77
2022/09/21 05:37:33;;;;;;;4.70;2.60;;;;;;;19.35;64.99;94787.06;5124294;28;20189;-79
2022/09/21 05:40:01;;;;;;;3.07;2.67;;;;;;;19.89;61.52;94790.81;5126607;28;20757;-76
2022/09/21 05:42:28;;;;;;;6.90;3.27;;;;;;;20.37;59.24;94803.75;5117473;28;20193;-78
2022/09/21 05:44:55;;;;;;;9.17;3.37;;;;;;;20.73;57.29;94806.91;5113536;28;20667;-77
2022/09/21 05:47:26;;;;;;;5.37;2.90;;;;;;;21.15;55.10;94809.31;5112713;28;20649;-79
2022/09/21 05:50:04;;;;;;;10.45;3.15;;;;;;;21.56;53.39;94795.31;5112495;28;20196;-77
2022/09/21 05:52:38;;;;;;;12.48;3.28;;;;;;;21.98;51.80;94794.03;5112575;28;20196;-79
2022/09/21 05:55:25;;;;;;;6.57;3.03;;;;;;;22.41;50.40;94796.06;5112434;28;20195;-79
2022/09/21 05:58:01;;;;;;;4.93;2.78;;;;;;;22.66;49.57;94791.69;5112150;28;20222;-77
2022/09/21 06:00:39;;;;;;;7.13;3.50;;;;;;;22.90;48.16;94792.00;5112202;28;20204;-78
2022/09/21 06:03:27;;;;;;;6.78;3.33;;;;;;;23.07;47.62;94803.50;5111537;28;20258;-78
2022/09/21 06:05:55;;;;;;;9.63;3.80;;;;;;;23.14;46.52;94803.44;5111795;28;20255;-78
2022/09/21 06:08:22;;;;;;;4.63;3.35;;;;;;;23.16;46.38;94797.00;5111971;28;20181;-78
2022/09/21 06:10:49;;;;;;;9.05;3.78;;;;;;;23.13;45.61;94804.47;5112125;28;20204;-78
2022/09/21 06:13:15;;;;;;;11.77;3.50;;;;;;;23.17;45.46;94800.41;5111945;28;20223;-80
2022/09/21 06:15:42;;;;;;;13.93;3.67;;;;;;;23.16;45.00;94804.03;5112952;28;20185;-78
2022/09/21 06:18:10;;;;;;;7.03;3.78;;;;;;;23.13;44.64;94801.84;5111685;28;20991;-78
2022/09/21 06:20:37;;;;;;;8.85;3.53;;;;;;;23.13;44.55;94812.28;5112669;28;20221;-79
2022/09/21 06:23:07;;;;;;;7.55;3.55;;;;;;;23.13;44.51;94810.47;5112869;28;20189;-78
2022/09/21 06:25:34;;;;;;;8.48;3.78;;;;;;;22.98;44.06;94782.09;5113260;28;20181;-77
2022/09/21 06:28:04;;;;;;;5.80;3.65;;;;;;;23.21;43.80;94809.41;5117463;28;20189;-79
2022/09/21 06:30:33;;;;;;;5.38;3.70;;;;;;;23.29;43.78;94812.56;5116521;28;20192;-78
2022/09/21 06:33:00;;;;;;;9.95;4.13;;;;;;;23.38;43.54;94815.69;5112198;28;20189;-79
2022/09/21 06:35:27;;;;;;;8.40;3.22;;;;;;;23.38;43.42;94801.84;5112779;28;20246;-78
2022/09/21 06:37:58;;;;;;;4.90;3.38;;;;;;;23.51;43.36;94812.97;5112284;28;20185;-79
2022/09/21 06:40:26;;;;;;;3.88;3.53;;;;;;;23.41;42.99;94786.56;5112684;28;20308;-78
2022/09/21 06:42:56;;;;;;;9.57;3.63;;;;;;;23.71;42.92;94827.69;5111602;28;20185;-79
2022/09/21 06:45:24;;;;;;;6.75;4.03;;;;;;;23.81;42.94;94821.97;5112210;28;20268;-80
2022/09/21 06:47:51;;;;;;;9.32;3.92;;;;;;;23.87;42.60;94823.72;5093388;28;20717;-78
2022/09/21 06:50:18;;;;;;;6.43;3.53;;;;;;;24.06;42.70;94833.16;5112779;28;20246;-78
2022/09/21 06:52:45;;;;;;;5.78;3.78;;;;;;;24.10;42.52;94816.03;5112491;28;20189;-78
2022/09/21 06:55:11;;;;;;;6.28;3.58;;;;;;;24.40;42.52;94841.47;5112170;28;20192;-79
2022/09/21 06:57:40;;;;;;;4.15;3.45;;;;;;;24.52;41.86;94824.81;5113005;28;20189;-78
2022/09/21 07:00:09;;;;;;;4.93;3.20;;;;;;;24.61;41.67;94795.72;5121989;28;20316;-77
2022/09/21 07:02:36;;;;;;;4.60;2.75;;;;;;;25.21;41.28;94845.41;5122135;28;20208;-78
2022/09/21 07:05:04;;;;;;;2.65;2.30;;;;;;;25.47;40.74;94838.94;5121207;28;20208;-77
2022/09/21 07:07:31;;;;;;;4.15;2.20;;;;;;;25.64;40.61;94842.47;5112093;28;20604;-78
2022/09/21 07:09:59;;;;;;;3.30;2.08;;;;;;;25.79;40.58;94838.66;5111933;28;20204;-78
2022/09/21 07:12:28;;;;;;;5.00;2.45;;;;;;;25.92;40.31;94849.69;5111979;28;20223;-79
2022/09/21 07:14:56;;;;;;;2.75;1.63;;;;;;;26.02;40.32;94847.28;5111186;28;20205;-79
2022/09/21 07:17:23;;;;;;;1.75;1.65;;;;;;;26.19;39.73;94846.56;5111423;28;20192;-81
2022/09/21 07:19:51;;;;;;;3.08;2.08;;;;;;;26.32;39.32;94840.28;5111632;28;20295;-76
2022/09/21 07:22:18;;;;;;;1.73;1.40;;;;;;;26.43;39.21;94840.25;5111383;28;20895;-81
2022/09/21 07:24:45;;;;;;;4.35;1.50;;;;;;;26.52;39.47;94849.38;5111098;28;20682;-80
2022/09/21 07:27:11;;;;;;;1.35;1.27;;;;;;;26.59;38.71;94840.56;5112184;28;20608;-82
2022/09/21 07:29:38;;;;;;;1.48;1.38;;;;;;;26.60;39.07;94842.16;5111015;28;20678;-79
2022/09/21 07:32:06;;;;;;;4.32;1.60;;;;;;;26.59;38.39;94846.59;5111566;28;20188;-79
2022/09/21 07:34:36;;;;;;;1.23;1.20;;;;;;;26.54;38.48;94853.59;5111136;28;20192;-80
2022/09/21 07:37:02;;;;;;;1.60;1.50;;;;;;;26.46;38.68;94854.75;5111082;28;20215;-78
2022/09/21 07:39:31;;;;;;;2.03;1.67;;;;;;;26.39;38.53;94854.06;5109755;28;20288;-80
2022/09/21 07:41:58;;;;;;;1.67;1.30;;;;;;;26.27;38.98;94854.09;5110896;28;20674;-79
2022/09/21 07:44:25;;;;;;;1.75;1.25;;;;;;;26.17;38.82;94848.66;5111620;28;20182;-79
2022/09/21 07:46:52;;;;;;;3.05;1.27;;;;;;;26.08;38.50;94850.00;5111606;28;20193;-79
2022/09/21 07:49:20;;;;;;;1.42;1.13;;;;;;;25.95;38.49;94845.78;5111343;28;20192;-79
2022/09/21 07:51:47;;;;;;;1.60;1.50;;;;;;;25.79;38.61;94830.78;5110854;28;20224;-79
2022/09/21 07:54:15;;;;;;;1.52;1.42;;;;;;;25.72;38.54;94826.41;5110679;28;20188;-78
2022/09/21 07:59:04;;;;;;;4.50;1.48;;;;;;;25.81;38.79;94842.63;5110607;28;20189;-80
2022/09/21 07:59:31;;;;;;;1.58;1.17;;;;;;;25.77;38.81;94841.47;5111487;28;20632;-78
2022/09/21 08:01:58;;;;;;;1.70;1.60;;;;;;;25.70;38.77;94844.19;5111083;28;20224;-78
2022/09/21 08:04:27;;;;;;;3.40;1.55;;;;;;;25.75;38.29;94848.75;5110469;28;20246;-79
2022/09/21 08:06:54;;;;;;;1.40;1.30;;;;;;;25.62;38.29;94825.41;5110373;28;20232;-79
2022/09/21 08:09:21;;;;;;;4.95;1.80;;;;;;;25.72;38.50;94847.38;5110693;28;20185;-79
2022/09/21 08:11:48;;;;;;;1.73;1.30;;;;;;;25.73;38.11;94850.78;5109890;28;20201;-78
2022/09/21 08:14:18;;;;;;;3.80;1.35;;;;;;;25.76;38.29;94839.88;5110348;28;20683;-80
2022/09/21 08:16:45;;;;;;;1.80;1.30;;;;;;;25.81;37.75;94844.44;5110233;28;20200;-80
2022/09/21 08:19:13;;;;;;;1.65;1.30;;;;;;;25.84;38.21;94834.31;5110852;28;20216;-78
2022/09/21 08:21:42;;;;;;;1.42;1.30;;;;;;;25.89;37.83;94834.41;5110709;28;20331;-79
2022/09/21 08:24:09;;;;;;;2.83;1.45;;;;;;;25.94;37.79;94839.75;5110589;28;20192;-78
2022/09/21 08:26:36;;;;;;;1.98;1.30;;;;;;;26.02;37.63;94844.66;5110162;28;20201;-80
2022/09/21 08:29:03;;;;;;;2.85;1.70;;;;;;;26.07;37.54;94838.72;5110273;28;20224;-80
2022/09/21 08:31:30;;;;;;;1.60;1.33;;;;;;;26.18;37.81;94837.91;5110041;28;20196;-79
2022/09/21 08:33:57;;;;;;;1.52;1.38;;;;;;;26.25;37.32;94837.78;5110330;28;20207;-80
2022/09/21 08:36:24;;;;;;;1.50;1.40;;;;;;;26.30;37.54;94826.63;5110463;28;20211;-78
2022/09/21 08:38:53;;;;;;;3.80;1.40;;;;;;;26.40;37.20;94827.59;5110182;28;20177;-80
2022/09/21 08:41:24;;;;;;;1.40;1.30;;;;;;;26.41;37.21;94818.69;5110163;28;20241;-80
2022/09/21 08:43:55;;;;;;;3.65;1.40;;;;;;;26.49;37.15;94831.47;5109841;28;20196;-78
2022/09/21 08:46:27;;;;;;;1.52;1.42;;;;;;;26.52;37.22;94827.59;5109830;28;20545;-79
2022/09/21 08:48:59;;;;;;;2.38;1.67;;;;;;;26.51;37.31;94823.34;5109778;28;20208;-79
2022/09/21 08:51:30;;;;;;;2.53;1.50;;;;;;;26.46;37.51;94818.03;5111298;28;20231;-79
2022/09/21 08:54:01;;;;;;;2.47;1.60;;;;;;;26.49;37.22;94815.75;5115004;28;20187;-80
2022/09/21 08:56:28;;;;;;;5.38;1.50;;;;;;;26.49;36.90;94826.22;5116791;28;20185;-78
2022/09/21 08:58:55;;;;;;;1.98;1.40;;;;;;;26.48;36.93;94821.22;5115702;28;20563;-79
2022/09/21 09:01:39;;;;;;;1.10;1.00;;;;;;;26.06;36.69;94758.50;5095372;28;20220;-79
2022/09/21 09:04:28;;;;;;;1.70;1.20;;;;;;;26.41;36.99;94812.66;5113610;28;20193;-80
2022/09/21 09:07:07;;;;;;;1.35;1.25;;;;;;;26.43;36.54;94811.41;5113271;28;20225;-79
2022/09/21 09:09:55;;;;;;;1.38;1.27;;;;;;;26.46;36.96;94810.94;5113978;28;20205;-80
2022/09/21 09:12:36;;;;;;;2.25;1.52;;;;;;;26.49;36.73;94805.25;5114238;28;20258;-78
2022/09/21 09:15:17;;;;;;;2.15;1.50;;;;;;;26.50;36.37;94806.03;5113684;28;20188;-79
2022/09/21 09:17:52;;;;;;;3.42;1.15;;;;;;;26.35;36.79;94800.50;5113519;28;20197;-79
2022/09/21 09:20:23;;;;;;;1.42;1.33;;;;;;;26.28;36.68;94805.84;5113160;28;20204;-78
2022/09/21 09:23:01;;;;;;;1.23;1.13;;;;;;;26.15;36.96;94806.13;5113224;28;20548;-78
2022/09/21 09:25:36;;;;;;;3.40;1.50;;;;;;;25.98;36.89;94800.78;5113678;28;20199;-78
2022/09/21 09:28:16;;;;;;;1.75;1.10;;;;;;;25.82;36.94;94793.63;5113789;28;20188;-78
2022/09/21 09:30:43;;;;;;;1.25;1.10;;;;;;;25.75;36.87;94799.78;5113501;28;20571;-77
2022/09/21 09:33:16;;;;;;;1.40;1.25;;;;;;;25.66;36.50;94795.13;5113477;28;20192;-81
2022/09/21 09:35:48;;;;;;;3.28;1.30;;;;;;;25.58;36.44;94796.25;5113132;28;20192;-78
2022/09/21 09:38:24;;;;;;;1.40;1.30;;;;;;;25.52;36.88;94792.72;5113273;28;20272;-78
2022/09/21 09:41:12;;;;;;;1.27;1.13;;;;;;;25.50;36.98;94788.75;5113938;28;20256;-78
2022/09/21 09:43:51;;;;;;;1.48;1.38;;;;;;;25.50;36.79;94779.06;5112959;28;20199;-78
2022/09/21 09:46:28;;;;;;;1.33;1.27;;;;;;;25.30;36.45;94741.94;5113776;28;20185;-78
2022/09/21 09:49:18;;;;;;;4.72;1.30;;;;;;;25.60;36.54;94775.84;5113213;28;20648;-80
2022/09/21 09:51:45;;;;;;;1.23;1.23;;;;;;;25.52;36.51;94750.03;5112964;28;20580;-79
2022/09/21 09:54:16;;;;;;;1.30;1.20;;;;;;;25.69;36.57;94773.69;5113545;28;20185;-78
2022/09/21 09:56:44;;;;;;;1.30;1.30;;;;;;;25.66;36.72;94771.53;5095164;28;20185;-78
2022/09/21 09:59:19;;;;;;;1.30;1.30;;;;;;;25.50;36.24;94747.63;5113190;28;20261;-79
2022/09/21 10:01:58;;;;;;;1.45;1.00;;;;;;;25.48;36.45;94768.03;5116486;28;20622;-79
2022/09/21 10:04:24;;;;;;;1.58;1.10;;;;;;;25.32;36.33;94766.09;5120634;28;20193;-79
2022/09/21 10:06:51;;;;;;;1.08;1.08;;;;;;;25.20;36.70;94760.03;5113789;28;20232;-77
2022/09/21 10:09:23;;;;;;;1.52;1.40;;;;;;;25.09;36.52;94761.63;5112951;28;20185;-79
2022/09/21 10:11:52;;;;;;;1.70;1.23;;;;;;;24.92;36.93;94756.22;5112578;28;20208;-79
2022/09/21 10:14:22;;;;;;;4.80;1.27;;;;;;;24.74;36.81;94748.44;5094158;28;20200;-81
2022/09/21 10:16:51;;;;;;;1.58;1.48;;;;;;;24.57;36.69;94750.09;5112549;28;20192;-80
2022/09/21 10:19:22;;;;;;;1.67;1.13;;;;;;;24.33;36.83;94734.31;5112691;28;20189;-82
2022/09/21 10:21:54;;;;;;;1.15;1.10;;;;;;;24.33;36.98;94736.94;5112496;28;20388;-79
2022/09/21 10:24:24;;;;;;;1.10;1.10;;;;;;;24.41;36.96;94748.94;5112539;28;20178;-82
2022/09/21 10:26:55;;;;;;;1.15;1.15;;;;;;;24.41;36.79;94735.88;5112241;28;20196;-79
2022/09/21 10:29:38;;;;;;;1.27;1.20;;;;;;;24.44;36.61;94740.66;5112273;28;20178;-78
2022/09/21 10:32:17;;;;;;;1.42;1.33;;;;;;;24.47;36.16;94735.75;5112303;28;20188;-79
2022/09/21 10:35:01;;;;;;;1.08;1.08;;;;;;;24.47;36.14;94724.50;5112180;28;20181;-80
2022/09/21 10:37:32;;;;;;;1.05;1.05;;;;;;;24.50;36.24;94719.63;5111861;28;20253;-79
2022/09/21 10:39:59;;;;;;;1.80;1.30;;;;;;;24.66;35.71;94725.25;5112062;28;20200;-78
2022/09/21 10:42:34;;;;;;;1.00;1.00;;;;;;;24.70;35.81;94719.34;5111611;28;20701;-81
2022/09/21 10:45:13;;;;;;;1.08;1.08;;;;;;;24.72;35.42;94714.66;5111712;28;20249;-78
2022/09/21 10:47:43;;;;;;;1.10;1.10;;;;;;;24.61;35.61;94704.19;5111773;28;20185;-80
2022/09/21 10:50:23;;;;;;;0.90;0.90;;;;;;;24.63;35.80;94718.63;5111866;28;20229;-80
2022/09/21 10:52:55;;;;;;;1.30;1.20;;;;;;;24.48;35.87;94718.25;5111901;28;20250;-80
2022/09/21 10:55:24;;;;;;;1.40;1.30;;;;;;;24.26;36.06;94718.72;5111542;28;20188;-81
2022/09/21 10:57:54;;;;;;;1.40;1.30;;;;;;;23.95;35.90;94700.63;5111424;28;20223;-81
2022/09/21 11:00:34;;;;;;;1.38;1.27;;;;;;;23.63;36.23;94682.53;5111517;28;20207;-81
2022/09/21 11:03:06;;;;;;;1.15;1.15;;;;;;;23.71;36.55;94712.81;5111368;28;20195;-78
2022/09/21 11:05:37;;;;;;;3.08;1.30;;;;;;;23.67;36.30;94704.59;5111530;28;20244;-78
2022/09/21 11:08:14;;;;;;;1.25;1.15;;;;;;;23.44;36.31;94673.88;5110958;28;20234;-80
2022/09/21 11:10:46;;;;;;;1.38;1.20;;;;;;;23.53;36.56;94698.69;5111862;28;20197;-80
2022/09/21 11:13:28;;;;;;;1.33;1.13;;;;;;;23.49;36.48;94700.16;5111905;28;20189;-78
2022/09/21 11:16:01;;;;;;;1.23;1.13;;;;;;;23.40;36.64;94684.97;5111056;28;20204;-80
2022/09/21 11:18:40;;;;;;;1.23;1.13;;;;;;;23.42;36.54;94682.97;5110969;28;20197;-79
2022/09/21 11:21:15;;;;;;;1.20;1.20;;;;;;;23.59;36.30;94696.22;5110933;28;20220;-79
2022/09/21 11:23:52;;;;;;;1.30;1.20;;;;;;;23.62;36.43;94687.94;5110917;28;20238;-80
2022/09/21 11:26:25;;;;;;;1.45;1.30;;;;;;;23.37;36.27;94646.28;5111080;28;20189;-78
2022/09/21 11:29:02;;;;;;;1.23;1.23;;;;;;;23.51;36.30;94661.56;5110687;28;20544;-79
2022/09/21 11:32:00;;;;;;;1.00;1.00;;;;;;;23.62;36.09;94680.94;5110757;28;20777;-79
2022/09/21 11:34:43;;;;;;;5.32;1.40;;;;;;;23.63;36.30;94707.84;5027838;28;20606;-79
2022/09/21 11:37:26;;;;;;;1.17;1.17;;;;;;;23.46;36.48;94692.75;5027655;28;20249;-79
2022/09/21 11:40:07;;;;;;;1.30;1.20;;;;;;;23.28;36.50;94700.56;5028114;28;20184;-79
2022/09/21 11:42:48;;;;;;;1.08;1.08;;;;;;;23.09;36.78;94701.53;5027433;28;20235;-80
2022/09/21 11:45:35;;;;;;;1.25;1.20;;;;;;;22.92;36.73;94690.84;5027601;28;20219;-79
2022/09/21 11:48:15;;;;;;;1.20;1.20;;;;;;;22.83;36.96;94692.91;5027473;28;20191;-79
2022/09/21 11:50:56;;;;;;;1.63;1.52;;;;;;;22.68;36.92;94682.81;5027563;28;20218;-79
2022/09/21 11:53:39;;;;;;;2.85;1.30;;;;;;;22.71;37.21;94698.03;5029500;28;20190;-78
2022/09/21 11:56:35;;;;;;;1.92;1.50;;;;;;;22.51;37.53;94695.56;5027348;28;20198;-79